KVIH/VIH METAR and TAF weather

Enter ICAO airport designator
Station Type Date Time Source
KVIH METAR 2021/02/25 16:53 UTC NOAA

KVIH 251653Z AUTO 00000KT 10SM CLR 04/M02 A3041 RMK AO2 SLP304 T00441017


Station Type Date Time Source
KVIH Decoded METAR 2021/02/25 16:53 UTC NOAA

ROLLA/VICHY ROLLA NATIONAL, MO, United States (KVIH) 38-08N 91-46W 333M
Feb 25, 2021 - 11:53 AM EST / 2021.02.25 1653 UTC
Wind: Calm:0
Visibility: 10 mile(s):0
Sky conditions: clear
Temperature: 39.9 F (4.4 C)
Dew Point: 28.9 F (-1.7 C)
Relative Humidity: 64%
Pressure (altimeter): 30.41 in. Hg (1029 hPa)
ob: KVIH 251653Z AUTO 00000KT 10SM CLR 04/M02 A3041 RMK AO2 SLP304 T00441017
cycle: 17

Station Type Date Time Source
KVIH TAF UTC NOAA

Error!

Example: see airport list